sensor_id;sensor_type;location;lat;lon;timestamp;pressure;altitude;pressure_sealevel;temperature;humidity
80405;BME280;69733;48.744;9.176;2023-12-22T00:00:39;95569.66;;;5.48;97.87
80405;BME280;69733;48.744;9.176;2023-12-22T00:03:04;95578.38;;;5.48;97.53
80405;BME280;69733;48.744;9.176;2023-12-22T00:05:30;95570.56;;;5.53;97.09
80405;BME280;69733;48.744;9.176;2023-12-22T00:07:55;95557.38;;;5.53;96.84
80405;BME280;69733;48.744;9.176;2023-12-22T00:10:20;95553.72;;;5.55;97.05
80405;BME280;69733;48.744;9.176;2023-12-22T00:12:46;95565.88;;;5.56;97.05
80405;BME280;69733;48.744;9.176;2023-12-22T00:15:11;95573.53;;;5.57;96.99
80405;BME280;69733;48.744;9.176;2023-12-22T00:17:36;95567.59;;;5.62;96.75
80405;BME280;69733;48.744;9.176;2023-12-22T00:20:02;95560.03;;;5.65;96.85
80405;BME280;69733;48.744;9.176;2023-12-22T00:22:28;95561.19;;;5.69;96.61
80405;BME280;69733;48.744;9.176;2023-12-22T00:24:54;95542.13;;;5.79;96.27
80405;BME280;69733;48.744;9.176;2023-12-22T00:27:19;95551.06;;;5.78;96.29
80405;BME280;69733;48.744;9.176;2023-12-22T00:29:45;95532.16;;;5.81;96.51
80405;BME280;69733;48.744;9.176;2023-12-22T00:32:10;95545.81;;;5.78;96.78
80405;BME280;69733;48.744;9.176;2023-12-22T00:34:35;95547.88;;;5.76;97.40
80405;BME280;69733;48.744;9.176;2023-12-22T00:37:01;95548.44;;;5.78;97.30
80405;BME280;69733;48.744;9.176;2023-12-22T00:39:26;95551.31;;;5.76;98.24
80405;BME280;69733;48.744;9.176;2023-12-22T00:41:52;95584.25;;;5.74;98.31
80405;BME280;69733;48.744;9.176;2023-12-22T00:44:18;95584.25;;;5.74;98.89
80405;BME280;69733;48.744;9.176;2023-12-22T00:46:43;95584.69;;;5.71;99.63
80405;BME280;69733;48.744;9.176;2023-12-22T00:49:08;95595.25;;;5.71;100.00
80405;BME280;69733;48.744;9.176;2023-12-22T00:51:33;95607.41;;;5.72;100.00
80405;BME280;69733;48.744;9.176;2023-12-22T00:53:59;95611.88;;;5.71;100.00
80405;BME280;69733;48.744;9.176;2023-12-22T00:56:24;95615.78;;;5.69;100.00
80405;BME280;69733;48.744;9.176;2023-12-22T00:58:49;95615.56;;;5.70;100.00
80405;BME280;69733;48.744;9.176;2023-12-22T01:01:15;95623.25;;;5.72;100.00
80405;BME280;69733;48.744;9.176;2023-12-22T01:03:40;95604.22;;;5.70;100.00
80405;BME280;69733;48.744;9.176;2023-12-22T01:06:05;95606.25;;;5.68;100.00
80405;BME280;69733;48.744;9.176;2023-12-22T01:08:30;95600.16;;;5.67;100.00
80405;BME280;69733;48.744;9.176;2023-12-22T01:10:56;95584.00;;;5.64;100.00
80405;BME280;69733;48.744;9.176;2023-12-22T01:13:21;95599.03;;;5.63;100.00
80405;BME280;69733;48.744;9.176;2023-12-22T01:15:46;95586.63;;;5.64;100.00
80405;BME280;69733;48.744;9.176;2023-12-22T01:18:12;95571.03;;;5.62;100.00
80405;BME280;69733;48.744;9.176;2023-12-22T01:20:37;95576.66;;;5.54;100.00
80405;BME280;69733;48.744;9.176;2023-12-22T01:23:03;95570.00;;;5.51;100.00
80405;BME280;69733;48.744;9.176;2023-12-22T01:25:28;95591.56;;;5.48;100.00
80405;BME280;69733;48.744;9.176;2023-12-22T01:27:53;95585.22;;;5.49;100.00
80405;BME280;69733;48.744;9.176;2023-12-22T01:30:19;95583.28;;;5.45;100.00
80405;BME280;69733;48.744;9.176;2023-12-22T01:32:44;95566.06;;;5.42;100.00
80405;BME280;69733;48.744;9.176;2023-12-22T01:35:10;95575.47;;;5.38;100.00
80405;BME280;69733;48.744;9.176;2023-12-22T01:37:36;95594.81;;;5.32;100.00
80405;BME280;69733;48.744;9.176;2023-12-22T01:40:02;95594.25;;;5.30;100.00
80405;BME280;69733;48.744;9.176;2023-12-22T01:42:28;95599.19;;;5.27;100.00
80405;BME280;69733;48.744;9.176;2023-12-22T01:44:53;95603.63;;;5.26;100.00
80405;BME280;69733;48.744;9.176;2023-12-22T01:47:19;95608.56;;;5.23;100.00
80405;BME280;69733;48.744;9.176;2023-12-22T01:49:44;95603.94;;;5.18;100.00
80405;BME280;69733;48.744;9.176;2023-12-22T01:52:09;95615.75;;;5.16;100.00
80405;BME280;69733;48.744;9.176;2023-12-22T01:54:35;95622.41;;;5.18;100.00
80405;BME280;69733;48.744;9.176;2023-12-22T01:57:01;95616.22;;;5.13;100.00
80405;BME280;69733;48.744;9.176;2023-12-22T01:59:27;95615.59;;;5.11;100.00
80405;BME280;69733;48.744;9.176;2023-12-22T02:01:55;95624.78;;;5.08;100.00
80405;BME280;69733;48.744;9.176;2023-12-22T02:04:22;95632.31;;;5.05;100.00
80405;BME280;69733;48.744;9.176;2023-12-22T02:06:48;95625.22;;;5.05;100.00
80405;BME280;69733;48.744;9.176;2023-12-22T02:09:13;95643.88;;;5.03;100.00
80405;BME280;69733;48.744;9.176;2023-12-22T02:11:39;95623.25;;;5.00;100.00
80405;BME280;69733;48.744;9.176;2023-12-22T02:14:05;95614.09;;;5.03;100.00
80405;BME280;69733;48.744;9.176;2023-12-22T02:16:32;95629.78;;;4.98;100.00
80405;BME280;69733;48.744;9.176;2023-12-22T02:22:08;95629.97;;;4.96;100.00
80405;BME280;69733;48.744;9.176;2023-12-22T02:24:34;95631.03;;;4.95;100.00
80405;BME280;69733;48.744;9.176;2023-12-22T02:27:27;95648.06;;;4.93;100.00
80405;BME280;69733;48.744;9.176;2023-12-22T02:30:00;95639.59;;;4.91;100.00
80405;BME280;69733;48.744;9.176;2023-12-22T02:32:38;95629.63;;;4.93;100.00
80405;BME280;69733;48.744;9.176;2023-12-22T02:35:10;95647.50;;;4.91;100.00
80405;BME280;69733;48.744;9.176;2023-12-22T02:37:36;95638.56;;;4.92;100.00
80405;BME280;69733;48.744;9.176;2023-12-22T02:40:04;95651.06;;;4.96;100.00
80405;BME280;69733;48.744;9.176;2023-12-22T02:42:30;95643.41;;;4.95;100.00
80405;BME280;69733;48.744;9.176;2023-12-22T02:44:58;95656.34;;;4.96;100.00
80405;BME280;69733;48.744;9.176;2023-12-22T02:47:24;95636.06;;;4.97;100.00
80405;BME280;69733;48.744;9.176;2023-12-22T02:49:49;95633.44;;;4.97;100.00
80405;BME280;69733;48.744;9.176;2023-12-22T02:52:14;95618.63;;;4.96;100.00
80405;BME280;69733;48.744;9.176;2023-12-22T02:54:39;95616.59;;;4.98;100.00
80405;BME280;69733;48.744;9.176;2023-12-22T02:57:07;95617.84;;;4.95;100.00
80405;BME280;69733;48.744;9.176;2023-12-22T02:59:32;95628.16;;;4.97;100.00
80405;BME280;69733;48.744;9.176;2023-12-22T03:01:57;95629.53;;;4.99;100.00
80405;BME280;69733;48.744;9.176;2023-12-22T03:04:22;95627.94;;;4.98;100.00
80405;BME280;69733;48.744;9.176;2023-12-22T03:06:48;95636.44;;;5.00;100.00
80405;BME280;69733;48.744;9.176;2023-12-22T03:09:13;95632.16;;;4.99;100.00
80405;BME280;69733;48.744;9.176;2023-12-22T03:11:38;95631.16;;;5.00;100.00
80405;BME280;69733;48.744;9.176;2023-12-22T03:14:04;95640.06;;;4.99;100.00
80405;BME280;69733;48.744;9.176;2023-12-22T03:16:29;95617.75;;;5.02;100.00
80405;BME280;69733;48.744;9.176;2023-12-22T03:18:54;95616.16;;;5.01;100.00
80405;BME280;69733;48.744;9.176;2023-12-22T03:21:20;95616.72;;;5.03;100.00
80405;BME280;69733;48.744;9.176;2023-12-22T03:23:45;95618.34;;;5.04;100.00
80405;BME280;69733;48.744;9.176;2023-12-22T03:26:11;95618.94;;;5.06;100.00
80405;BME280;69733;48.744;9.176;2023-12-22T03:28:36;95633.13;;;5.05;100.00
80405;BME280;69733;48.744;9.176;2023-12-22T03:31:01;95632.13;;;5.06;100.00
80405;BME280;69733;48.744;9.176;2023-12-22T03:33:27;95644.59;;;5.11;100.00
80405;BME280;69733;48.744;9.176;2023-12-22T03:35:52;95641.97;;;5.11;100.00
80405;BME280;69733;48.744;9.176;2023-12-22T03:38:18;95656.56;;;5.13;100.00
80405;BME280;69733;48.744;9.176;2023-12-22T03:40:43;95640.75;;;5.13;100.00
80405;BME280;69733;48.744;9.176;2023-12-22T03:43:09;95648.66;;;5.13;100.00
80405;BME280;69733;48.744;9.176;2023-12-22T03:45:34;95658.97;;;5.15;100.00
80405;BME280;69733;48.744;9.176;2023-12-22T03:47:59;95657.13;;;5.15;100.00
80405;BME280;69733;48.744;9.176;2023-12-22T03:50:24;95660.38;;;5.17;100.00
80405;BME280;69733;48.744;9.176;2023-12-22T03:52:50;95673.91;;;5.21;100.00
80405;BME280;69733;48.744;9.176;2023-12-22T03:55:15;95685.22;;;5.21;100.00
80405;BME280;69733;48.744;9.176;2023-12-22T03:57:41;95674.69;;;5.21;100.00
80405;BME280;69733;48.744;9.176;2023-12-22T04:00:06;95663.56;;;5.19;100.00
80405;BME280;69733;48.744;9.176;2023-12-22T04:02:32;95640.28;;;5.16;100.00
80405;BME280;69733;48.744;9.176;2023-12-22T04:04:57;95649.31;;;5.09;100.00
80405;BME280;69733;48.744;9.176;2023-12-22T04:07:23;95659.84;;;5.09;100.00
80405;BME280;69733;48.744;9.176;2023-12-22T04:09:48;95661.53;;;5.03;100.00
80405;BME280;69733;48.744;9.176;2023-12-22T04:12:13;95661.41;;;4.98;100.00
80405;BME280;69733;48.744;9.176;2023-12-22T04:14:38;95677.22;;;4.98;100.00
80405;BME280;69733;48.744;9.176;2023-12-22T04:17:04;95649.03;;;4.98;100.00
80405;BME280;69733;48.744;9.176;2023-12-22T04:19:29;95673.56;;;4.99;100.00
80405;BME280;69733;48.744;9.176;2023-12-22T04:21:54;95656.13;;;4.98;100.00
80405;BME280;69733;48.744;9.176;2023-12-22T04:24:20;95664.03;;;4.98;100.00
80405;BME280;69733;48.744;9.176;2023-12-22T04:26:45;95652.69;;;4.97;100.00
80405;BME280;69733;48.744;9.176;2023-12-22T04:29:11;95670.31;;;4.97;100.00
80405;BME280;69733;48.744;9.176;2023-12-22T04:31:36;95665.28;;;4.95;100.00
80405;BME280;69733;48.744;9.176;2023-12-22T04:34:02;95658.16;;;4.96;100.00
80405;BME280;69733;48.744;9.176;2023-12-22T04:36:27;95672.84;;;4.92;100.00
80405;BME280;69733;48.744;9.176;2023-12-22T04:38:52;95679.13;;;4.91;100.00
80405;BME280;69733;48.744;9.176;2023-12-22T04:41:17;95680.75;;;4.92;100.00
80405;BME280;69733;48.744;9.176;2023-12-22T04:43:43;95683.94;;;4.94;100.00
80405;BME280;69733;48.744;9.176;2023-12-22T04:46:08;95692.06;;;4.92;100.00
80405;BME280;69733;48.744;9.176;2023-12-22T04:48:33;95699.97;;;4.92;100.00
80405;BME280;69733;48.744;9.176;2023-12-22T04:50:59;95696.56;;;4.92;100.00
80405;BME280;69733;48.744;9.176;2023-12-22T04:53:24;95680.75;;;4.92;100.00
80405;BME280;69733;48.744;9.176;2023-12-22T04:55:50;95678.69;;;4.94;100.00
80405;BME280;69733;48.744;9.176;2023-12-22T04:58:18;95698.97;;;4.93;100.00
80405;BME280;69733;48.744;9.176;2023-12-22T05:00:43;95690.03;;;4.94;100.00
80405;BME280;69733;48.744;9.176;2023-12-22T05:03:09;95704.03;;;4.95;100.00
80405;BME280;69733;48.744;9.176;2023-12-22T05:05:34;95704.03;;;4.95;100.00
80405;BME280;69733;48.744;9.176;2023-12-22T05:07:59;95692.66;;;4.94;100.00
80405;BME280;69733;48.744;9.176;2023-12-22T05:10:25;95699.56;;;4.95;100.00
80405;BME280;69733;48.744;9.176;2023-12-22T05:12:50;95698.75;;;4.95;100.00
80405;BME280;69733;48.744;9.176;2023-12-22T05:15:15;95710.03;;;5.02;100.00
80405;BME280;69733;48.744;9.176;2023-12-22T05:17:41;95692.03;;;4.99;100.00
80405;BME280;69733;48.744;9.176;2023-12-22T05:20:07;95707.38;;;5.02;100.00
80405;BME280;69733;48.744;9.176;2023-12-22T05:22:32;95709.66;;;4.98;100.00
80405;BME280;69733;48.744;9.176;2023-12-22T05:24:58;95719.75;;;5.01;100.00
80405;BME280;69733;48.744;9.176;2023-12-22T05:27:25;95725.59;;;5.03;100.00
80405;BME280;69733;48.744;9.176;2023-12-22T05:29:50;95738.94;;;5.09;100.00
80405;BME280;69733;48.744;9.176;2023-12-22T05:32:15;95736.50;;;5.07;100.00
80405;BME280;69733;48.744;9.176;2023-12-22T05:34:41;95739.75;;;5.09;100.00
80405;BME280;69733;48.744;9.176;2023-12-22T05:37:06;95723.34;;;5.07;100.00
80405;BME280;69733;48.744;9.176;2023-12-22T05:39:31;95734.13;;;5.06;100.00
80405;BME280;69733;48.744;9.176;2023-12-22T05:41:57;95738.94;;;5.09;100.00
80405;BME280;69733;48.744;9.176;2023-12-22T05:44:22;95719.47;;;5.10;100.00
80405;BME280;69733;48.744;9.176;2023-12-22T05:46:49;95739.59;;;5.04;100.00
80405;BME280;69733;48.744;9.176;2023-12-22T05:49:14;95743.41;;;5.08;100.00
80405;BME280;69733;48.744;9.176;2023-12-22T05:51:40;95742.97;;;5.11;100.00
80405;BME280;69733;48.744;9.176;2023-12-22T05:54:07;95750.66;;;5.13;100.00
80405;BME280;69733;48.744;9.176;2023-12-22T05:56:33;95753.88;;;5.15;100.00
80405;BME280;69733;48.744;9.176;2023-12-22T05:58:59;95751.03;;;5.16;100.00
80405;BME280;69733;48.744;9.176;2023-12-22T06:01:24;95761.13;;;5.19;100.00
80405;BME280;69733;48.744;9.176;2023-12-22T06:03:49;95736.16;;;5.22;100.00
80405;BME280;69733;48.744;9.176;2023-12-22T06:06:15;95755.66;;;5.21;100.00
80405;BME280;69733;48.744;9.176;2023-12-22T06:08:40;95763.94;;;5.24;100.00
80405;BME280;69733;48.744;9.176;2023-12-22T06:11:06;95777.47;;;5.28;100.00
80405;BME280;69733;48.744;9.176;2023-12-22T06:13:34;95782.16;;;5.26;100.00
80405;BME280;69733;48.744;9.176;2023-12-22T06:15:59;95780.03;;;5.34;100.00
80405;BME280;69733;48.744;9.176;2023-12-22T06:18:25;95781.63;;;5.35;100.00
80405;BME280;69733;48.744;9.176;2023-12-22T06:20:50;95775.78;;;5.33;100.00
80405;BME280;69733;48.744;9.176;2023-12-22T06:23:16;95780.25;;;5.33;100.00
80405;BME280;69733;48.744;9.176;2023-12-22T06:25:44;95788.97;;;5.33;100.00
80405;BME280;69733;48.744;9.176;2023-12-22T06:28:11;95789.16;;;5.32;100.00
80405;BME280;69733;48.744;9.176;2023-12-22T06:30:37;95812.13;;;5.31;100.00
80405;BME280;69733;48.744;9.176;2023-12-22T06:33:02;95817.97;;;5.33;100.00
80405;BME280;69733;48.744;9.176;2023-12-22T06:35:28;95826.69;;;5.34;100.00
80405;BME280;69733;48.744;9.176;2023-12-22T06:37:53;95823.41;;;5.38;100.00
80405;BME280;69733;48.744;9.176;2023-12-22T06:40:20;95840.38;;;5.42;100.00
80405;BME280;69733;48.744;9.176;2023-12-22T06:42:46;95837.53;;;5.44;100.00
80405;BME280;69733;48.744;9.176;2023-12-22T06:45:11;95834.69;;;5.45;100.00
80405;BME280;69733;48.744;9.176;2023-12-22T06:47:36;95824.13;;;5.45;100.00
80405;BME280;69733;48.744;9.176;2023-12-22T06:50:02;95819.44;;;5.47;100.00
80405;BME280;69733;48.744;9.176;2023-12-22T06:52:28;95819.44;;;5.47;100.00
80405;BME280;69733;48.744;9.176;2023-12-22T06:54:53;95829.41;;;5.45;100.00
80405;BME280;69733;48.744;9.176;2023-12-22T06:57:19;95850.06;;;5.48;100.00
80405;BME280;69733;48.744;9.176;2023-12-22T06:59:45;95850.06;;;5.48;100.00
80405;BME280;69733;48.744;9.176;2023-12-22T07:02:13;95863.28;;;5.48;100.00
80405;BME280;69733;48.744;9.176;2023-12-22T07:07:32;95863.72;;;5.45;100.00
80405;BME280;69733;48.744;9.176;2023-12-22T07:09:58;95865.91;;;5.48;100.00
80405;BME280;69733;48.744;9.176;2023-12-22T07:12:23;95867.50;;;5.49;100.00
80405;BME280;69733;48.744;9.176;2023-12-22T07:14:48;95857.19;;;5.48;100.00
80405;BME280;69733;48.744;9.176;2023-12-22T07:17:14;95865.91;;;5.48;100.00
80405;BME280;69733;48.744;9.176;2023-12-22T07:19:39;95864.28;;;5.47;100.00
80405;BME280;69733;48.744;9.176;2023-12-22T07:22:04;95885.38;;;5.47;100.00
80405;BME280;69733;48.744;9.176;2023-12-22T07:24:30;95877.47;;;5.47;100.00
80405;BME280;69733;48.744;9.176;2023-12-22T07:26:55;95863.47;;;5.47;100.00
80405;BME280;69733;48.744;9.176;2023-12-22T07:29:20;95867.94;;;5.46;100.00
80405;BME280;69733;48.744;9.176;2023-12-22T07:31:45;95874.84;;;5.47;100.00
80405;BME280;69733;48.744;9.176;2023-12-22T07:34:11;95884.13;;;5.50;100.00
80405;BME280;69733;48.744;9.176;2023-12-22T07:36:36;95888.41;;;5.51;100.00
80405;BME280;69733;48.744;9.176;2023-12-22T07:39:01;95893.88;;;5.49;100.00
80405;BME280;69733;48.744;9.176;2023-12-22T07:41:27;95903.22;;;5.52;100.00
80405;BME280;69733;48.744;9.176;2023-12-22T07:43:52;95895.06;;;5.53;100.00
80405;BME280;69733;48.744;9.176;2023-12-22T07:46:18;95892.78;;;5.57;100.00
80405;BME280;69733;48.744;9.176;2023-12-22T07:48:44;95899.09;;;5.56;100.00
80405;BME280;69733;48.744;9.176;2023-12-22T07:51:10;95896.09;;;5.53;100.00
80405;BME280;69733;48.744;9.176;2023-12-22T07:53:36;95891.53;;;5.41;100.00
80405;BME280;69733;48.744;9.176;2023-12-22T07:56:01;95883.47;;;5.36;100.00
80405;BME280;69733;48.744;9.176;2023-12-22T07:58:26;95887.13;;;5.35;100.00
80405;BME280;69733;48.744;9.176;2023-12-22T08:00:52;95881.84;;;5.35;100.00
80405;BME280;69733;48.744;9.176;2023-12-22T08:03:17;95881.06;;;5.35;100.00
80405;BME280;69733;48.744;9.176;2023-12-22T08:05:43;95890.00;;;5.34;100.00
80405;BME280;69733;48.744;9.176;2023-12-22T08:08:08;95886.09;;;5.36;100.00
80405;BME280;69733;48.744;9.176;2023-12-22T08:10:36;95881.06;;;5.35;100.00
80405;BME280;69733;48.744;9.176;2023-12-22T08:13:02;95878.00;;;5.38;100.00
80405;BME280;69733;48.744;9.176;2023-12-22T08:15:27;95886.09;;;5.36;100.00
80405;BME280;69733;48.744;9.176;2023-12-22T08:17:52;95887.13;;;5.35;100.00
80405;BME280;69733;48.744;9.176;2023-12-22T08:20:19;95881.84;;;5.35;100.00
80405;BME280;69733;48.744;9.176;2023-12-22T08:22:48;95884.72;;;5.34;100.00
80405;BME280;69733;48.744;9.176;2023-12-22T08:25:14;95896.88;;;5.35;100.00
80405;BME280;69733;48.744;9.176;2023-12-22T08:27:39;95883.91;;;5.33;100.00
80405;BME280;69733;48.744;9.176;2023-12-22T08:30:05;95899.16;;;5.31;100.00
80405;BME280;69733;48.744;9.176;2023-12-22T08:32:31;95884.34;;;5.30;100.00
80405;BME280;69733;48.744;9.176;2023-12-22T08:34:56;95900.31;;;5.35;100.00
80405;BME280;69733;48.744;9.176;2023-12-22T08:37:21;95879.44;;;5.34;100.00
80405;BME280;69733;48.744;9.176;2023-12-22T08:39:47;95888.16;;;5.34;100.00
80405;BME280;69733;48.744;9.176;2023-12-22T08:42:12;95871.28;;;5.35;100.00
80405;BME280;69733;48.744;9.176;2023-12-22T08:44:37;95899.28;;;5.36;100.00
80405;BME280;69733;48.744;9.176;2023-12-22T08:47:03;95875.72;;;5.41;100.00
80405;BME280;69733;48.744;9.176;2023-12-22T08:49:28;95898.66;;;5.41;100.00
80405;BME280;69733;48.744;9.176;2023-12-22T08:51:53;95895.13;;;5.47;100.00
80405;BME280;69733;48.744;9.176;2023-12-22T08:54:19;95901.22;;;5.47;100.00
80405;BME280;69733;48.744;9.176;2023-12-22T08:56:44;95910.75;;;5.48;100.00
80405;BME280;69733;48.744;9.176;2023-12-22T08:59:09;95906.06;;;5.50;100.00
80405;BME280;69733;48.744;9.176;2023-12-22T09:01:35;95910.88;;;5.53;100.00
80405;BME280;69733;48.744;9.176;2023-12-22T09:04:00;95898.75;;;5.53;100.00
80405;BME280;69733;48.744;9.176;2023-12-22T09:06:26;95920.22;;;5.56;100.00
80405;BME280;69733;48.744;9.176;2023-12-22T09:08:52;95914.50;;;5.59;100.00
80405;BME280;69733;48.744;9.176;2023-12-22T09:11:19;95923.81;;;5.62;100.00
80405;BME280;69733;48.744;9.176;2023-12-22T09:13:45;95918.44;;;5.68;100.00
80405;BME280;69733;48.744;9.176;2023-12-22T09:16:11;95921.31;;;5.67;100.00
80405;BME280;69733;48.744;9.176;2023-12-22T09:18:40;95922.09;;;5.67;100.00
80405;BME280;69733;48.744;9.176;2023-12-22T09:21:05;95930.03;;;5.67;100.00
80405;BME280;69733;48.744;9.176;2023-12-22T09:23:32;95918.00;;;5.71;100.00
80405;BME280;69733;48.744;9.176;2023-12-22T09:25:57;95916.63;;;5.69;100.00
80405;BME280;69733;48.744;9.176;2023-12-22T09:28:23;95929.16;;;5.73;100.00
80405;BME280;69733;48.744;9.176;2023-12-22T09:30:48;95924.09;;;5.72;100.00
80405;BME280;69733;48.744;9.176;2023-12-22T09:33:14;95913.09;;;5.75;100.00
80405;BME280;69733;48.744;9.176;2023-12-22T09:35:40;95930.91;;;5.79;100.00
80405;BME280;69733;48.744;9.176;2023-12-22T09:38:07;95929.09;;;5.80;100.00
80405;BME280;69733;48.744;9.176;2023-12-22T09:40:34;95939.41;;;5.81;100.00
80405;BME280;69733;48.744;9.176;2023-12-22T09:43:02;95941.84;;;5.83;100.00
80405;BME280;69733;48.744;9.176;2023-12-22T09:45:30;95936.16;;;5.86;100.00
80405;BME280;69733;48.744;9.176;2023-12-22T09:47:56;95948.91;;;5.89;100.00
80405;BME280;69733;48.744;9.176;2023-12-22T09:50:23;95953.53;;;5.93;100.00
80405;BME280;69733;48.744;9.176;2023-12-22T09:52:48;95959.19;;;5.97;100.00
80405;BME280;69733;48.744;9.176;2023-12-22T09:55:14;95961.63;;;5.98;100.00
80405;BME280;69733;48.744;9.176;2023-12-22T09:57:40;95948.63;;;5.97;100.00
80405;BME280;69733;48.744;9.176;2023-12-22T10:00:10;95946.56;;;5.99;100.00
80405;BME280;69733;48.744;9.176;2023-12-22T10:02:44;95951.84;;;5.99;100.00
80405;BME280;69733;48.744;9.176;2023-12-22T10:05:11;95947.16;;;6.01;100.00
80405;BME280;69733;48.744;9.176;2023-12-22T10:07:38;95955.91;;;6.02;100.00
80405;BME280;69733;48.744;9.176;2023-12-22T10:10:05;95950.63;;;6.02;100.00
80405;BME280;69733;48.744;9.176;2023-12-22T10:12:33;95942.91;;;6.00;100.00
80405;BME280;69733;48.744;9.176;2023-12-22T10:14:59;95936.97;;;6.05;100.00
80405;BME280;69733;48.744;9.176;2023-12-22T10:17:25;95925.75;;;6.09;100.00
80405;BME280;69733;48.744;9.176;2023-12-22T10:19:51;95903.38;;;6.12;100.00
80405;BME280;69733;48.744;9.176;2023-12-22T10:22:16;95896.81;;;6.14;100.00
80405;BME280;69733;48.744;9.176;2023-12-22T10:24:46;95885.00;;;6.17;100.00
80405;BME280;69733;48.744;9.176;2023-12-22T10:27:18;95892.72;;;6.18;100.00
80405;BME280;69733;48.744;9.176;2023-12-22T10:29:51;95886.53;;;6.24;100.00
80405;BME280;69733;48.744;9.176;2023-12-22T10:32:18;95898.16;;;6.23;100.00
80405;BME280;69733;48.744;9.176;2023-12-22T10:34:44;95876.69;;;6.31;100.00
80405;BME280;69733;48.744;9.176;2023-12-22T10:37:10;95885.50;;;6.25;100.00
80405;BME280;69733;48.744;9.176;2023-12-22T10:39:38;95888.72;;;6.27;100.00
80405;BME280;69733;48.744;9.176;2023-12-22T10:42:04;95878.41;;;6.26;100.00
80405;BME280;69733;48.744;9.176;2023-12-22T10:44:29;95877.59;;;6.25;100.00
80405;BME280;69733;48.744;9.176;2023-12-22T10:46:56;95864.16;;;6.27;100.00
80405;BME280;69733;48.744;9.176;2023-12-22T10:49:23;95866.13;;;6.31;100.00
80405;BME280;69733;48.744;9.176;2023-12-22T10:51:49;95860.97;;;6.36;100.00
80405;BME280;69733;48.744;9.176;2023-12-22T10:54:16;95853.03;;;6.36;100.00
80405;BME280;69733;48.744;9.176;2023-12-22T10:56:41;95844.09;;;6.37;100.00
80405;BME280;69733;48.744;9.176;2023-12-22T10:59:08;95852.69;;;6.33;100.00
80405;BME280;69733;48.744;9.176;2023-12-22T11:01:35;95858.34;;;6.36;100.00
80405;BME280;69733;48.744;9.176;2023-12-22T11:04:08;95850.63;;;6.35;100.00
80405;BME280;69733;48.744;9.176;2023-12-22T11:06:35;95849.38;;;6.37;100.00
80405;BME280;69733;48.744;9.176;2023-12-22T11:09:06;95857.31;;;6.37;100.00
80405;BME280;69733;48.744;9.176;2023-12-22T11:11:34;95852.38;;;6.41;100.00
80405;BME280;69733;48.744;9.176;2023-12-22T11:14:00;95857.72;;;6.34;100.00
80405;BME280;69733;48.744;9.176;2023-12-22T11:16:31;95844.31;;;6.36;100.00
80405;BME280;69733;48.744;9.176;2023-12-22T11:18:59;95844.97;;;6.31;100.00
80405;BME280;69733;48.744;9.176;2023-12-22T11:21:25;95846.81;;;6.31;100.00
80405;BME280;69733;48.744;9.176;2023-12-22T11:23:51;95846.03;;;6.30;100.00
80405;BME280;69733;48.744;9.176;2023-12-22T11:26:18;95850.72;;;6.28;100.00
80405;BME280;69733;48.744;9.176;2023-12-22T11:28:45;95843.81;;;6.27;100.00
80405;BME280;69733;48.744;9.176;2023-12-22T11:31:12;95836.94;;;6.26;100.00
80405;BME280;69733;48.744;9.176;2023-12-22T11:33:40;95835.78;;;6.22;100.00
80405;BME280;69733;48.744;9.176;2023-12-22T11:36:08;95827.03;;;6.22;100.00
80405;BME280;69733;48.744;9.176;2023-12-22T11:38:34;95823.03;;;6.19;100.00
80405;BME280;69733;48.744;9.176;2023-12-22T11:41:00;95824.25;;;6.17;100.00
80405;BME280;69733;48.744;9.176;2023-12-22T11:43:27;95805.00;;;6.16;100.00
80405;BME280;69733;48.744;9.176;2023-12-22T11:45:53;95809.81;;;6.19;100.00
80405;BME280;69733;48.744;9.176;2023-12-22T11:48:19;95807.19;;;6.19;100.00
80405;BME280;69733;48.744;9.176;2023-12-22T11:50:46;95804.75;;;6.18;100.00
80405;BME280;69733;48.744;9.176;2023-12-22T11:53:25;95789.56;;;6.13;100.00
80405;BME280;69733;48.744;9.176;2023-12-22T11:55:59;95780.63;;;6.14;100.00
80405;BME280;69733;48.744;9.176;2023-12-22T11:58:51;95780.06;;;6.12;100.00
80405;BME280;69733;48.744;9.176;2023-12-22T12:01:23;95775.34;;;6.14;100.00
80405;BME280;69733;48.744;9.176;2023-12-22T12:03:50;95768.03;;;6.16;100.00
80405;BME280;69733;48.744;9.176;2023-12-22T12:08:52;95750.91;;;6.19;100.00
80405;BME280;69733;48.744;9.176;2023-12-22T12:11:19;95755.94;;;6.20;100.00
80405;BME280;69733;48.744;9.176;2023-12-22T12:13:45;95735.88;;;6.19;100.00
80405;BME280;69733;48.744;9.176;2023-12-22T12:16:11;95724.84;;;6.22;100.00
80405;BME280;69733;48.744;9.176;2023-12-22T12:18:37;95734.94;;;6.25;100.00
80405;BME280;69733;48.744;9.176;2023-12-22T12:21:06;95726.09;;;6.31;100.00
80405;BME280;69733;48.744;9.176;2023-12-22T12:23:31;95736.13;;;6.29;100.00
80405;BME280;69733;48.744;9.176;2023-12-22T12:25:57;95731.38;;;6.31;100.00
80405;BME280;69733;48.744;9.176;2023-12-22T12:28:26;95720.25;;;6.29;100.00
80405;BME280;69733;48.744;9.176;2023-12-22T12:31:01;95710.25;;;6.31;100.00
80405;BME280;69733;48.744;9.176;2023-12-22T12:33:28;95715.31;;;6.33;100.00
80405;BME280;69733;48.744;9.176;2023-12-22T12:35:57;95713.03;;;6.36;100.00
80405;BME280;69733;48.744;9.176;2023-12-22T12:38:34;95715.88;;;6.35;100.00
80405;BME280;69733;48.744;9.176;2023-12-22T12:41:03;95714.06;;;6.35;100.00
80405;BME280;69733;48.744;9.176;2023-12-22T12:43:29;95717.16;;;6.32;100.00
80405;BME280;69733;48.744;9.176;2023-12-22T12:45:55;95710.03;;;6.33;100.00
80405;BME280;69733;48.744;9.176;2023-12-22T12:48:21;95706.13;;;6.35;100.00
80405;BME280;69733;48.744;9.176;2023-12-22T12:50:47;95705.56;;;6.33;100.00
80405;BME280;69733;48.744;9.176;2023-12-22T12:53:13;95707.16;;;6.34;100.00
80405;BME280;69733;48.744;9.176;2023-12-22T12:55:38;95696.03;;;6.32;100.00
80405;BME280;69733;48.744;9.176;2023-12-22T12:58:04;95701.09;;;6.34;100.00
80405;BME280;69733;48.744;9.176;2023-12-22T13:00:31;95705.09;;;6.36;100.00
80405;BME280;69733;48.744;9.176;2023-12-22T13:03:02;95706.59;;;6.32;100.00